Terminal Aerodrome Forecast
Issued by NWS

Home | Current Version | Previous Version | Text Only | Print | Product List | Glossary On
Versions: 1 2 3 4 5 6 7 8 9 10 11 12 13 14 15 16 17 18
000
FTUS44 KLZK 202342
TAFPBF
TAF
KPBF 202342Z 2100/2124 17008KT P6SM VCSH SCT050 BKN100
      TEMPO 2100/2104 3SM -RA BR BKN025 OVC050
     FM210400 29010KT 4SM -RA BR BKN015
      TEMPO 2104/2108 2SM RA BR OVC008
     FM211200 VRB03KT 3SM -RA BR BKN010
     FM211800 27007KT 5SM -RA BR OVC030=

USA.gov is the U.S. government's official web portal to all federal, state and local government web resources and services.